Venice, New York
Current Conditions -  °F | °C
As of 5:56 AM on Saturday 25 Oct 2014 (Local Time) from KITH Reporting Station
Overcast Overcast  
Wind Chill: 38°   Ceiling: 6000
Heat Index: 38°   Visibility: 9mi
Dew Point: 37°   Wind: 3mph
Humidity: 96%   Direction: 90°E
Pressure: 29.89"   Gusts: NA
Location:  42.7818°N, 76.5651°W
Report Text: KITH 250956Z AUTO 09003KT 9SM OVC060 03/03 A2989 RMK AO2 T00330027 SLP126
Loading
Personal Weather Stations






























Interactive Weather Map
Tropical Storm Tracking
New forecast layout! Learn more

10-Day Weather Forecast

Advertisements
Track Severe Weather on mobile